Station Historical Data
Daily Summary for August 12, 2012 Units:  English    Metric   Both
« Previous Day
Next Day »
Daily Weekly Monthly Yearly Custom
  High: Low: Average:
Temperature: 83.0 °F 55.3 °F 70.8 °F
Dew Point: 64.5 °F 53.8 °F 58.5 °F
Humidity: 95% 41% 68%
Wind Speed: 6.0mph 0.0mph 1.3mph
Wind Gust: 8.0mph - -
Wind- - SSE
Pressure: 30.04 in 29.94 in -
Precipitation: 0.02 in    
Historical Graphs
 
 
Tabular Data for August 12, 2012
Time Temperature Dew Point Pressure Wind Wind Speed Wind Gust Humidity Rainfall Rate (Hourly) Conditions
00:00 67.1 °F 58.5 °F 29.95 in Calm   1.0 mph 74% 0.00 in
00:01 67.0 °F 58.5 °F 29.95 in ENE 1.0 mph 1.0 mph 74% 0.00 in
00:06 66.8 °F 58.3 °F 29.95 in ENE 1.0 mph 1.0 mph 74% 0.00 in
00:12 66.7 °F 57.8 °F 29.95 in Calm   1.0 mph 73% 0.00 in
00:17 66.7 °F 57.8 °F 29.95 in East 1.0 mph 2.0 mph 73% 0.00 in
00:22 66.9 °F 57.2 °F 29.95 in Calm   2.0 mph 71% 0.00 in
00:27 66.8 °F 57.9 °F 29.95 in Calm     73% 0.00 in
00:32 66.4 °F 57.5 °F 29.95 in NE 1.0 mph 2.0 mph 73% 0.00 in
00:37 66.1 °F 57.6 °F 29.95 in SE 1.0 mph 1.0 mph 74% 0.00 in
00:42 65.2 °F 57.8 °F 29.96 in SE 1.0 mph 2.0 mph 77% 0.00 in
00:47 64.5 °F 57.1 °F 29.96 in Calm     77% 0.00 in
00:52 64.5 °F 57.1 °F 29.96 in Calm     77% 0.00 in
00:57 64.4 °F 57.4 °F 29.96 in Calm     78% 0.00 in
01:02 63.9 °F 57.6 °F 29.96 in Calm   1.0 mph 80% 0.00 in
01:07 63.3 °F 58.1 °F 29.96 in Calm   1.0 mph 83% 0.00 in
01:12 62.8 °F 57.9 °F 29.96 in Calm     84% 0.00 in
01:17 62.4 °F 57.8 °F 29.96 in Calm     85% 0.00 in
01:22 62.3 °F 57.7 °F 29.96 in Calm     85% 0.00 in
01:27 62.3 °F 57.7 °F 29.96 in Calm     85% 0.00 in
01:32 61.7 °F 57.8 °F 29.96 in Calm     87% 0.00 in
01:37 61.1 °F 57.8 °F 29.96 in Calm     89% 0.00 in
01:42 60.7 °F 57.8 °F 29.96 in Calm     90% 0.00 in
01:47 60.7 °F 57.4 °F 29.96 in Calm     89% 0.00 in
01:52 60.5 °F 56.9 °F 29.96 in Calm     88% 0.00 in
01:57 60.3 °F 57.0 °F 29.96 in Calm     89% 0.00 in
02:02 59.9 °F 57.0 °F 29.97 in Calm     90% 0.00 in
02:07 59.5 °F 56.6 °F 29.96 in Calm     90% 0.00 in
02:12 59.1 °F 56.5 °F 29.97 in Calm     91% 0.00 in
02:17 59.0 °F 56.7 °F 29.97 in Calm     92% 0.00 in
02:22 59.3 °F 57.0 °F 29.97 in NNE 1.0 mph 1.0 mph 92% 0.00 in
02:27 59.5 °F 57.2 °F 29.97 in NNE 1.0 mph 1.0 mph 92% 0.00 in
02:33 59.5 °F 57.2 °F 29.97 in Calm   1.0 mph 92% 0.00 in
02:38 59.3 °F 57.3 °F 29.97 in Calm   1.0 mph 93% 0.00 in
02:43 59.1 °F 57.1 °F 29.97 in Calm   1.0 mph 93% 0.00 in
02:48 58.8 °F 56.8 °F 29.97 in Calm     93% 0.00 in
02:53 58.8 °F 57.1 °F 29.97 in NNE 1.0 mph 1.0 mph 94% 0.00 in
02:58 58.8 °F 57.1 °F 29.97 in NNE 1.0 mph 1.0 mph 94% 0.00 in
03:03 58.6 °F 56.9 °F 29.97 in Calm     94% 0.00 in
03:08 58.6 °F 56.9 °F 29.97 in Calm     94% 0.00 in
03:13 58.6 °F 56.9 °F 29.98 in Calm   1.0 mph 94% 0.00 in
03:18 58.6 °F 56.9 °F 29.98 in Calm     94% 0.00 in
03:23 58.6 °F 56.6 °F 29.97 in Calm     93% 0.00 in
03:28 58.6 °F 56.6 °F 29.97 in NNE 1.0 mph 1.0 mph 93% 0.00 in
03:33 58.8 °F 56.5 °F 29.97 in Calm   1.0 mph 92% 0.00 in
03:38 59.0 °F 56.4 °F 29.97 in Calm     91% 0.00 in
03:43 58.9 °F 56.3 °F 29.97 in Calm     91% 0.00 in
03:48 58.7 °F 56.1 °F 29.97 in NNE 1.0 mph 1.0 mph 91% 0.00 in
03:53 58.4 °F 55.8 °F 29.98 in Calm     91% 0.00 in
03:58 58.2 °F 55.9 °F 29.98 in NNE 1.0 mph 1.0 mph 92% 0.00 in
04:03 58.0 °F 56.0 °F 29.98 in Calm     93% 0.00 in
04:08 57.7 °F 55.7 °F 29.98 in Calm     93% 0.00 in
04:13 57.7 °F 56.0 °F 29.98 in Calm   1.0 mph 94% 0.00 in
04:18 57.8 °F 56.1 °F 29.98 in Calm   1.0 mph 94% 0.00 in
04:23 57.7 °F 56.0 °F 29.98 in Calm     94% 0.00 in
04:28 57.5 °F 55.8 °F 29.98 in Calm     94% 0.00 in
04:33 57.5 °F 55.8 °F 29.97 in Calm     94% 0.00 in
04:38 57.8 °F 56.1 °F 29.98 in Calm     94% 0.00 in
04:43 57.5 °F 55.8 °F 29.98 in Calm     94% 0.00 in
04:48 57.1 °F 55.4 °F 29.98 in Calm     94% 0.00 in
04:53 57.0 °F 55.3 °F 29.98 in Calm     94% 0.00 in
04:58 56.7 °F 55.0 °F 29.98 in Calm     94% 0.00 in
05:03 56.4 °F 54.7 °F 29.98 in Calm     94% 0.00 in
05:08 56.4 °F 54.7 °F 29.98 in Calm     94% 0.00 in
05:14 56.6 °F 55.2 °F 29.98 in Calm     95% 0.00 in
05:19 56.8 °F 55.4 °F 29.99 in Calm     95% 0.00 in
05:24 56.5 °F 54.8 °F 29.99 in Calm     94% 0.00 in
05:29 56.8 °F 55.4 °F 29.99 in Calm     95% 0.00 in
05:34 56.5 °F 54.8 °F 29.99 in Calm     94% 0.00 in
05:39 56.3 °F 54.9 °F 29.99 in Calm     95% 0.00 in
05:44 56.5 °F 55.1 °F 30.00 in Calm     95% 0.00 in
05:49 56.6 °F 55.2 °F 29.99 in Calm     95% 0.00 in
05:54 56.4 °F 55.0 °F 29.99 in Calm     95% 0.00 in
05:59 56.3 °F 54.9 °F 29.99 in Calm     95% 0.00 in
06:04 56.2 °F 54.8 °F 30.00 in Calm     95% 0.00 in
06:09 56.0 °F 54.6 °F 30.00 in Calm     95% 0.00 in
06:14 56.1 °F 54.7 °F 29.99 in Calm     95% 0.00 in
06:19 56.3 °F 54.9 °F 30.00 in Calm   1.0 mph 95% 0.00 in
06:24 56.1 °F 54.7 °F 30.00 in Calm   1.0 mph 95% 0.00 in
06:29 55.8 °F 54.4 °F 30.00 in Calm     95% 0.00 in
06:34 55.7 °F 54.3 °F 30.00 in Calm     95% 0.00 in
06:39 55.7 °F 54.3 °F 30.00 in Calm     95% 0.00 in
06:44 55.4 °F 54.0 °F 30.01 in Calm     95% 0.00 in
06:49 55.3 °F 53.9 °F 30.01 in Calm     95% 0.00 in
06:54 55.5 °F 54.1 °F 30.01 in Calm     95% 0.00 in
06:59 55.7 °F 54.3 °F 30.01 in Calm     95% 0.00 in
07:04 55.6 °F 54.2 °F 30.01 in Calm     95% 0.00 in
07:09 55.9 °F 54.5 °F 30.01 in Calm   1.0 mph 95% 0.00 in
07:14 55.8 °F 54.4 °F 30.01 in Calm     95% 0.00 in
07:19 55.6 °F 54.2 °F 30.01 in NNE 1.0 mph 1.0 mph 95% 0.00 in
07:24 55.7 °F 54.3 °F 30.01 in Calm   1.0 mph 95% 0.00 in
07:29 55.9 °F 54.5 °F 30.01 in NNE 1.0 mph 1.0 mph 95% 0.00 in
07:34 56.2 °F 54.8 °F 30.01 in Calm     95% 0.00 in
07:39 56.5 °F 55.1 °F 30.02 in Calm   1.0 mph 95% 0.00 in
07:44 56.7 °F 55.3 °F 30.02 in Calm     95% 0.00 in
07:49 56.9 °F 55.5 °F 30.02 in Calm     95% 0.00 in
07:54 57.9 °F 56.5 °F 30.02 in Calm     95% 0.00 in
07:59 58.3 °F 56.6 °F 30.02 in Calm     94% 0.00 in
08:04 58.1 °F 56.4 °F 30.02 in Calm   1.0 mph 94% 0.00 in
08:09 58.5 °F 56.8 °F 30.01 in Calm     94% 0.00 in
08:14 59.6 °F 57.9 °F 30.02 in Calm     94% 0.00 in
08:19 60.9 °F 59.2 °F 30.02 in Calm     94% 0.00 in
08:24 62.5 °F 60.5 °F 30.02 in Calm     93% 0.00 in
08:30 63.4 °F 61.0 °F 30.02 in Calm     92% 0.00 in
08:35 63.5 °F 60.5 °F 30.02 in Calm     90% 0.00 in
08:40 64.7 °F 61.7 °F 30.02 in Calm     90% 0.00 in
08:45 66.6 °F 62.9 °F 30.02 in Calm     88% 0.00 in
08:50 67.5 °F 63.2 °F 30.03 in Calm     86% 0.00 in
08:55 67.8 °F 63.5 °F 30.03 in Calm     86% 0.00 in
09:00 69.0 °F 64.0 °F 30.03 in Calm     84% 0.00 in
09:05 69.5 °F 64.5 °F 30.03 in Calm     84% 0.00 in
09:10 69.7 °F 62.5 °F 30.03 in Calm   1.0 mph 78% 0.00 in
09:15 70.6 °F 61.9 °F 30.03 in WSW 1.0 mph 1.0 mph 74% 0.00 in
09:20 70.9 °F 61.4 °F 30.03 in Calm   1.0 mph 72% 0.00 in
09:25 71.2 °F 61.3 °F 30.03 in Calm     71% 0.00 in
09:30 71.4 °F 59.9 °F 30.03 in WSW 1.0 mph 2.0 mph 67% 0.00 in
09:35 71.9 °F 61.2 °F 30.03 in Calm   1.0 mph 69% 0.00 in
09:40 72.6 °F 60.6 °F 30.03 in SW 1.0 mph 1.0 mph 66% 0.00 in
09:45 73.1 °F 59.8 °F 30.03 in SSW 1.0 mph 2.0 mph 63% 0.00 in
09:50 73.6 °F 60.7 °F 30.03 in Calm   1.0 mph 64% 0.00 in
09:55 74.2 °F 61.7 °F 30.03 in Calm   2.0 mph 65% 0.00 in
10:00 74.2 °F 59.0 °F 30.03 in SSW 2.0 mph 4.0 mph 59% 0.00 in
10:05 74.3 °F 59.1 °F 30.03 in SSW 2.0 mph 3.0 mph 59% 0.00 in
10:10 74.8 °F 60.5 °F 30.03 in SSE 3.0 mph 3.0 mph 61% 0.00 in
10:15 75.0 °F 60.2 °F 30.03 in SSW 2.0 mph 4.0 mph 60% 0.00 in
10:20 75.4 °F 60.6 °F 30.03 in SW 2.0 mph 4.0 mph 60% 0.00 in
10:25 75.4 °F 59.1 °F 30.03 in SSW 3.0 mph 5.0 mph 57% 0.00 in
10:30 75.3 °F 59.0 °F 30.03 in SW 5.0 mph 5.0 mph 57% 0.00 in
10:35 75.3 °F 59.5 °F 30.04 in SSW 3.0 mph 5.0 mph 58% 0.00 in
10:40 75.3 °F 56.5 °F 30.03 in WSW 3.0 mph 5.0 mph 52% 0.00 in
10:45 75.7 °F 59.9 °F 30.03 in SW 3.0 mph 4.0 mph 58% 0.00 in
10:50 75.9 °F 57.6 °F 30.03 in WSW 2.0 mph 5.0 mph 53% 0.00 in
10:55 76.3 °F 57.4 °F 30.03 in SW 3.0 mph 4.0 mph 52% 0.00 in
11:00 76.6 °F 58.7 °F 30.03 in WNW 2.0 mph 4.0 mph 54% 0.00 in
11:05 76.6 °F 59.8 °F 30.03 in NW 2.0 mph 2.0 mph 56% 0.00 in
11:10 77.2 °F 60.8 °F 30.03 in West 2.0 mph 2.0 mph 57% 0.00 in
11:15 77.6 °F 59.1 °F 30.03 in Calm   2.0 mph 53% 0.00 in
11:20 78.3 °F 61.3 °F 30.03 in WSW 2.0 mph 3.0 mph 56% 0.00 in
11:25 78.3 °F 57.0 °F 30.03 in NW 1.0 mph 2.0 mph 48% 0.00 in
11:30 78.5 °F 55.4 °F 30.03 in North 2.0 mph 4.0 mph 45% 0.00 in
11:35 78.5 °F 55.4 °F 30.03 in NNW 1.0 mph 4.0 mph 45% 0.00 in
11:40 78.5 °F 56.0 °F 30.03 in NW 3.0 mph 4.0 mph 46% 0.00 in
11:45 78.4 °F 56.5 °F 30.02 in NW 1.0 mph 3.0 mph 47% 0.00 in
11:50 78.8 °F 59.2 °F 30.02 in NNW 4.0 mph 5.0 mph 51% 0.00 in
11:55 78.6 °F 57.3 °F 30.02 in NNW 1.0 mph 5.0 mph 48% 0.00 in
12:00 78.9 °F 58.1 °F 30.02 in WNW 1.0 mph 3.0 mph 49% 0.00 in
12:05 79.1 °F 57.8 °F 30.02 in NW 2.0 mph 4.0 mph 48% 0.00 in
12:10 79.0 °F 55.9 °F 30.02 in NNE 3.0 mph 5.0 mph 45% 0.00 in
12:15 79.3 °F 56.8 °F 30.02 in NW 2.0 mph 4.0 mph 46% 0.00 in
12:20 79.1 °F 55.3 °F 30.02 in WNW 5.0 mph 8.0 mph 44% 0.00 in
12:25 78.8 °F 54.4 °F 30.02 in WNW 5.0 mph 6.0 mph 43% 0.00 in
12:30 78.3 °F 54.6 °F 30.02 in WNW 4.0 mph 6.0 mph 44% 0.00 in
12:36 78.2 °F 55.1 °F 30.02 in West 3.0 mph 5.0 mph 45% 0.00 in
12:41 78.2 °F 56.3 °F 30.02 in NW 1.0 mph 5.0 mph 47% 0.00 in
12:46 78.1 °F 53.8 °F 30.02 in NNW 3.0 mph 4.0 mph 43% 0.00 in
12:51 77.9 °F 54.9 °F 30.02 in WNW 1.0 mph 5.0 mph 45% 0.00 in
12:56 78.1 °F 56.2 °F 30.02 in Calm   2.0 mph 47% 0.00 in
13:01 78.7 °F 58.5 °F 30.01 in WNW 2.0 mph 3.0 mph 50% 0.00 in
13:06 79.4 °F 58.6 °F 30.01 in NW 2.0 mph 5.0 mph 49% 0.00 in
13:11 79.6 °F 57.6 °F 30.02 in NW 3.0 mph 5.0 mph 47% 0.00 in
13:16 79.6 °F 57.0 °F 30.01 in West 5.0 mph 5.0 mph 46% 0.00 in
13:22 80.0 °F 59.7 °F 30.01 in WNW 3.0 mph 5.0 mph 50% 0.00 in
13:27 80.2 °F 58.8 °F 30.01 in NNW 3.0 mph 6.0 mph 48% 0.00 in
13:32 80.0 °F 58.0 °F 30.01 in SW 2.0 mph 7.0 mph 47% 0.00 in
13:37 79.5 °F 56.3 °F 30.00 in Calm   2.0 mph 45% 0.00 in
13:42 80.3 °F 57.7 °F 30.00 in Calm   1.0 mph 46% 0.00 in
13:47 80.5 °F 56.6 °F 30.00 in ENE 3.0 mph 6.0 mph 44% 0.00 in
13:52 80.5 °F 57.2 °F 30.00 in NE 4.0 mph 4.0 mph 45% 0.00 in
13:57 80.5 °F 57.2 °F 30.00 in WNW 3.0 mph 5.0 mph 45% 0.00 in
14:02 80.4 °F 56.5 °F 30.00 in West 2.0 mph 5.0 mph 44% 0.00 in
14:07 80.8 °F 58.1 °F 29.99 in East 3.0 mph 3.0 mph 46% 0.00 in
14:12 81.0 °F 60.1 °F 29.99 in North 1.0 mph 4.0 mph 49% 0.00 in
14:17 81.1 °F 59.0 °F 29.99 in NNW 4.0 mph 5.0 mph 47% 0.00 in
14:22 81.1 °F 55.9 °F 29.99 in NW 4.0 mph 5.0 mph 42% 0.00 in
14:27 81.3 °F 56.7 °F 29.99 in NW 5.0 mph 5.0 mph 43% 0.00 in
14:32 81.1 °F 58.4 °F 29.99 in NNE 4.0 mph 8.0 mph 46% 0.00 in
14:37 81.2 °F 59.1 °F 29.99 in NW 1.0 mph 4.0 mph 47% 0.00 in
14:42 81.5 °F 59.9 °F 29.98 in WNW 3.0 mph 5.0 mph 48% 0.00 in
14:47 82.2 °F 60.6 °F 29.98 in Calm   4.0 mph 48% 0.00 in
14:53 82.6 °F 60.3 °F 29.98 in NE 1.0 mph 5.0 mph 47% 0.00 in
14:58 82.3 °F 58.9 °F 29.98 in NE 4.0 mph 5.0 mph 45% 0.00 in
15:03 81.9 °F 55.9 °F 29.98 in East 3.0 mph 5.0 mph 41% 0.00 in
15:08 82.2 °F 58.8 °F 29.98 in East 6.0 mph 6.0 mph 45% 0.00 in
15:13 81.6 °F 58.2 °F 29.98 in ENE 5.0 mph 6.0 mph 45% 0.00 in
15:18 81.3 °F 59.2 °F 29.97 in East 4.0 mph 5.0 mph 47% 0.00 in
15:23 81.3 °F 58.0 °F 29.97 in SSE 4.0 mph 6.0 mph 45% 0.00 in
15:28 81.0 °F 57.7 °F 29.97 in ESE 4.0 mph 5.0 mph 45% 0.00 in
15:33 81.0 °F 57.1 °F 29.97 in East 2.0 mph 6.0 mph 44% 0.00 in
15:38 81.3 °F 59.8 °F 29.97 in SE 5.0 mph 7.0 mph 48% 0.00 in
15:43 81.4 °F 58.7 °F 29.96 in ESE 2.0 mph 7.0 mph 46% 0.00 in
15:48 81.6 °F 57.6 °F 29.96 in NNE 4.0 mph 5.0 mph 44% 0.00 in
15:53 81.5 °F 57.5 °F 29.96 in East 3.0 mph 6.0 mph 44% 0.00 in
15:58 81.5 °F 57.5 °F 29.97 in North 1.0 mph 4.0 mph 44% 0.00 in
16:03 81.5 °F 59.9 °F 29.97 in ESE 2.0 mph 6.0 mph 48% 0.00 in
16:08 81.9 °F 60.9 °F 29.97 in ENE 2.0 mph 3.0 mph 49% 0.00 in
16:13 82.3 °F 58.9 °F 29.96 in ESE 2.0 mph 4.0 mph 45% 0.00 in
16:18 82.4 °F 58.3 °F 29.97 in ESE 2.0 mph 2.0 mph 44% 0.00 in
16:23 82.7 °F 60.4 °F 29.97 in East 2.0 mph 4.0 mph 47% 0.00 in
16:28 82.7 °F 59.2 °F 29.97 in ENE 5.0 mph 5.0 mph 45% 0.00 in
16:33 82.3 °F 58.2 °F 29.97 in East 3.0 mph 4.0 mph 44% 0.00 in
16:38 82.3 °F 58.9 °F 29.97 in SE 1.0 mph 3.0 mph 45% 0.00 in
16:43 82.3 °F 56.9 °F 29.96 in ESE 1.0 mph 3.0 mph 42% 0.00 in
16:48 82.8 °F 59.3 °F 29.96 in SSE 2.0 mph 3.0 mph 45% 0.00 in
16:53 83.0 °F 60.7 °F 29.96 in SE 1.0 mph 2.0 mph 47% 0.00 in
16:58 82.8 °F 59.9 °F 29.96 in ESE 2.0 mph 3.0 mph 46% 0.00 in
17:03 82.5 °F 58.4 °F 29.96 in Calm   3.0 mph 44% 0.00 in
17:08 82.8 °F 58.7 °F 29.96 in NNE 1.0 mph 3.0 mph 44% 0.00 in
17:14 82.7 °F 58.0 °F 29.96 in East 1.0 mph 5.0 mph 43% 0.00 in
17:19 82.8 °F 61.1 °F 29.96 in East 2.0 mph 4.0 mph 48% 0.00 in
17:24 82.5 °F 57.8 °F 29.95 in NE 2.0 mph 4.0 mph 43% 0.00 in
17:29 82.5 °F 59.0 °F 29.95 in SE 3.0 mph 4.0 mph 45% 0.00 in
17:33 82.6 °F 59.8 °F 29.95 in SE 3.0 mph 4.0 mph 46% 0.00 in
17:39 82.5 °F 60.3 °F 29.95 in SSE 4.0 mph 6.0 mph 47% 0.00 in
17:44 82.4 °F 60.2 °F 29.95 in ESE 2.0 mph 4.0 mph 47% 0.00 in
17:49 82.4 °F 59.6 °F 29.95 in SE 2.0 mph 4.0 mph 46% 0.00 in
17:54 82.2 °F 61.7 °F 29.95 in ESE 2.0 mph 4.0 mph 50% 0.00 in
17:59 82.2 °F 58.8 °F 29.95 in Calm   3.0 mph 45% 0.00 in
18:04 82.3 °F 61.2 °F 29.95 in ESE 3.0 mph 6.0 mph 49% 0.00 in
18:09 82.1 °F 61.1 °F 29.95 in ESE 2.0 mph 5.0 mph 49% 0.00 in
18:14 82.0 °F 59.8 °F 29.95 in East 4.0 mph 5.0 mph 47% 0.00 in
18:19 82.1 °F 61.6 °F 29.95 in ESE 3.0 mph 3.0 mph 50% 0.00 in
18:24 82.3 °F 59.5 °F 29.95 in ESE 2.0 mph 3.0 mph 46% 0.00 in
18:29 82.1 °F 60.5 °F 29.95 in East 2.0 mph 5.0 mph 48% 0.00 in
18:34 81.8 °F 60.2 °F 29.95 in East 2.0 mph 4.0 mph 48% 0.00 in
18:39 81.8 °F 60.2 °F 29.95 in East 1.0 mph 4.0 mph 48% 0.00 in
18:44 81.9 °F 60.9 °F 29.95 in ENE 3.0 mph 4.0 mph 49% 0.00 in
18:49 81.8 °F 61.9 °F 29.95 in East 2.0 mph 4.0 mph 51% 0.00 in
18:54 81.7 °F 61.3 °F 29.94 in East 3.0 mph 3.0 mph 50% 0.00 in
18:59 81.7 °F 62.4 °F 29.95 in ENE 3.0 mph 3.0 mph 52% 0.00 in
19:04 81.6 °F 62.8 °F 29.94 in East 3.0 mph 3.0 mph 53% 0.00 in
19:09 81.4 °F 62.6 °F 29.94 in ESE 2.0 mph 2.0 mph 53% 0.00 in
19:14 81.2 °F 62.5 °F 29.95 in East 2.0 mph 5.0 mph 53% 0.00 in
19:19 80.8 °F 61.5 °F 29.95 in ESE 2.0 mph 5.0 mph 52% 0.00 in
19:24 80.6 °F 63.0 °F 29.95 in East 2.0 mph 3.0 mph 55% 0.00 in
19:29 80.3 °F 61.6 °F 29.95 in East 1.0 mph 4.0 mph 53% 0.00 in
19:34 80.1 °F 61.4 °F 29.95 in ENE 3.0 mph 4.0 mph 53% 0.00 in
19:39 80.0 °F 62.4 °F 29.95 in East 2.0 mph 3.0 mph 55% 0.00 in
19:44 79.8 °F 62.2 °F 29.95 in East 2.0 mph 2.0 mph 55% 0.00 in
19:49 79.7 °F 62.1 °F 29.95 in East 2.0 mph 2.0 mph 55% 0.00 in
19:54 79.6 °F 63.0 °F 29.95 in East 1.0 mph 2.0 mph 57% 0.00 in
19:59 79.4 °F 62.9 °F 29.95 in East 2.0 mph 2.0 mph 57% 0.00 in
20:04 79.2 °F 62.7 °F 29.95 in East 1.0 mph 2.0 mph 57% 0.00 in
20:09 79.0 °F 63.0 °F 29.95 in East 2.0 mph 2.0 mph 58% 0.00 in
20:14 78.6 °F 63.1 °F 29.95 in Calm   3.0 mph 59% 0.00 in
20:19 78.0 °F 63.0 °F 29.95 in Calm   1.0 mph 60% 0.00 in
20:24 77.2 °F 63.2 °F 29.95 in Calm   1.0 mph 62% 0.00 in
20:29 76.4 °F 63.3 °F 29.95 in East 1.0 mph 1.0 mph 64% 0.00 in
20:34 75.6 °F 63.5 °F 29.95 in SE 1.0 mph 2.0 mph 66% 0.00 in
20:39 74.9 °F 63.6 °F 29.95 in SE 1.0 mph 1.0 mph 68% 0.00 in
20:44 74.4 °F 62.7 °F 29.95 in ESE 1.0 mph 2.0 mph 67% 0.00 in
20:49 74.3 °F 62.6 °F 29.96 in ESE 1.0 mph 1.0 mph 67% 0.00 in
20:54 74.1 °F 62.5 °F 29.96 in ESE 1.0 mph 1.0 mph 67% 0.00 in
20:59 73.9 °F 62.7 °F 29.97 in ESE 1.0 mph 1.0 mph 68% 0.00 in
21:04 73.6 °F 62.4 °F 29.96 in Calm   1.0 mph 68% 0.00 in
21:10 73.4 °F 63.0 °F 29.97 in SE 1.0 mph 1.0 mph 70% 0.00 in
21:15 73.1 °F 63.2 °F 29.97 in Calm   2.0 mph 71% 0.00 in
21:20 72.9 °F 63.0 °F 29.97 in Calm   1.0 mph 71% 0.00 in
21:25 72.7 °F 63.2 °F 29.97 in ESE 1.0 mph 1.0 mph 72% 0.00 in
21:30 72.5 °F 63.0 °F 29.97 in ESE 1.0 mph 2.0 mph 72% 0.00 in
21:35 72.3 °F 63.2 °F 29.97 in Calm   1.0 mph 73% 0.00 in
21:40 72.1 °F 63.0 °F 29.97 in Calm   1.0 mph 73% 0.00 in
21:45 72.2 °F 63.1 °F 29.97 in Calm   1.0 mph 73% 0.00 in
21:50 72.2 °F 62.7 °F 29.98 in ESE 1.0 mph 2.0 mph 72% 0.00 in
21:55 72.2 °F 62.3 °F 29.98 in ESE 2.0 mph 2.0 mph 71% 0.00 in
22:00 72.2 °F 61.9 °F 29.98 in ESE 2.0 mph 3.0 mph 70% 0.00 in
22:05 72.3 °F 61.6 °F 29.98 in SE 1.0 mph 2.0 mph 69% 0.00 in
22:10 72.4 °F 60.8 °F 29.98 in SE 2.0 mph 3.0 mph 67% 0.00 in
22:15 72.4 °F 60.4 °F 29.98 in SE 2.0 mph 3.0 mph 66% 0.00 in
22:20 72.4 °F 60.8 °F 29.98 in East 2.0 mph 2.0 mph 67% 0.00 in
22:25 72.2 °F 61.1 °F 29.98 in ESE 2.0 mph 2.0 mph 68% 0.00 in
22:30 72.0 °F 60.5 °F 29.98 in ESE 2.0 mph 2.0 mph 67% 0.00 in
22:35 72.0 °F 60.0 °F 29.98 in ESE 2.0 mph 2.0 mph 66% 0.00 in
22:40 72.2 °F 59.4 °F 29.98 in SE 3.0 mph 3.0 mph 64% 0.00 in
22:45 72.5 °F 58.8 °F 29.97 in ESE 2.0 mph 3.0 mph 62% 0.00 in
22:50 72.2 °F 59.4 °F 29.97 in East 2.0 mph 2.0 mph 64% 0.00 in
22:55 71.8 °F 59.4 °F 29.97 in East 2.0 mph 3.0 mph 65% 0.00 in
23:00 71.4 °F 59.0 °F 29.97 in ESE 3.0 mph 3.0 mph 65% 0.00 in
23:05 71.4 °F 59.0 °F 29.97 in ESE 2.0 mph 3.0 mph 65% 0.00 in
23:10 71.4 °F 58.6 °F 29.97 in ESE 4.0 mph 4.0 mph 64% 0.00 in
23:15 71.4 °F 58.6 °F 29.97 in ESE 4.0 mph 4.0 mph 64% 0.00 in
23:20 71.0 °F 59.1 °F 29.97 in SE 3.0 mph 5.0 mph 66% 0.00 in
23:25 70.6 °F 59.1 °F 29.97 in SE 3.0 mph 3.0 mph 67% 0.00 in
23:30 70.5 °F 58.6 °F 29.97 in SE 4.0 mph 4.0 mph 66% 0.00 in
23:35 70.4 °F 58.9 °F 29.97 in ESE 3.0 mph 4.0 mph 67% 0.00 in
23:41 70.1 °F 59.1 °F 29.97 in ESE 3.0 mph 3.0 mph 68% 0.00 in
23:46 70.0 °F 59.0 °F 29.97 in SE 3.0 mph 4.0 mph 68% 0.00 in
23:52 69.8 °F 59.2 °F 29.97 in ESE 3.0 mph 4.0 mph 69% 0.00 in
23:57 69.6 °F 59.4 °F 29.97 in East 1.0 mph 3.0 mph 70% 0.00 in
Compliments of Weather Underground